Spring Creek, Pennsylvania
Current Conditions -  °F | °C
As of 1:35 AM on Monday 22 Dec 2014 (Local Time) from KJHW Reporting Station
Clear Clear  
Wind Chill: 13°   Ceiling: Unl
Heat Index: 21°   Visibility: 10mi
Dew Point: 18°   Wind: 7mph
Humidity: 86%   Direction: 130°SE
Pressure: 30.16"   Gusts: NA
Location:  41.88°N, 79.53°W
Report Text: KJHW 220635Z 13006KT 10SM CLR M06/M08 A3016 RMK AO1
Loading
Personal Weather Stations






























Interactive Weather Map New forecast layout! Learn more

10-Day Weather Forecast

Advertisements
Track Severe Weather on mobile